Chicago, IL (60624)

11:38 PM CDT on August 28, 2015 (GMT -0500)
West Loop - Union Park | | Change Station
CLOSE
Current Station
Personal Weather Station
Location: Chicago, IL
Elevation: 600 ft
Nearby Weather Stations

Elev 600 ft 41.88 °N, 87.66 °W | Updated 12 minutes ago

Overcast
Overcast
71.0 °F
Feels Like 72 °F
N
0.0
Wind Variable Wind from East
Gusts 5.0 mph

Today
High -- | Low -- °F
--% Chance of Precip.
Yesterday
High -- | Low -- °F
Precip. -- in
6:12 AM 7:31 PM
Waxing Gibbous, 99% visible
Pressure 30.05 in
Visibility 10.0 miles
Clouds Mostly Cloudy 16000 ft
Overcast 19000 ft
Heat Index 72 °F
Dew Point 64 °F
Humidity 79%
Rainfall 0.00 in
Snow Depth Not available.
UV 0 out of 12
Pollen 8.60 out of 12
Air Quality Not available.
Flu Activity Not available.
METAR KMDW 290353Z 08004KT 10SM BKN160 OVC190 22/17 A3007 RMK AO2 SLP175 T02220172 $
Pressure 30.05 in
Visibility 10.0 miles
Clouds Mostly Cloudy 16000 ft
Overcast 19000 ft
Heat Index 72 °F
Dew Point 64 °F
Humidity 79%
Rainfall 0.00 in
Snow Depth Not available.
UV 0 out of 12
Pollen 8.60 out of 12
Air Quality Not available.
Flu Activity Not available.
METAR KMDW 290353Z 08004KT 10SM BKN160 OVC190 22/17 A3007 RMK AO2 SLP175 T02220172 $

10-Day Weather Forecast

×

Almanac

Astronomy

Aug. 28, 2015 Rise Set
Actual Time
Civil Twilight
Nautical Twilight
Astronomical Twilight
Moon
Length of Visible Light
Length of Day
Tomorrow will be .
, % of the Moon is Illuminated

Today's Extremes

State Highs State Lows

Community

WunderPhotos

Upload Photos

1,850,614 photos uploaded!

WunderBlogs® & News

Nearby

Air Quality

  Air Quality AQ Index Pollutant
Not available.

Snow Depth

Station Depth Elevation

Earthquake Activity

City Distance Mag. Time & Date
Minimum magnitude displayed is 2.5.

Coastal Water Temperatures

Place Temperature

Stations

Nearby Weather Stations

Station Location Temp. Windchill Dew Point Humidity Wind Precip. Elev Updated Type